createdAt,value
2023-05-02T00:00:50.787Z,81.57
2023-05-02T00:03:17.830Z,81.64
2023-05-02T00:05:44.757Z,81.81
2023-05-02T00:08:12.232Z,81.72
2023-05-02T00:10:39.236Z,81.70
2023-05-02T00:13:06.107Z,81.96
2023-05-02T00:15:32.860Z,81.87
2023-05-02T00:18:00.405Z,81.78
2023-05-02T00:20:27.279Z,81.78
2023-05-02T00:22:55.396Z,81.62
2023-05-02T00:25:22.110Z,81.52
2023-05-02T00:27:51.113Z,81.64
2023-05-02T00:30:18.753Z,81.92
2023-05-02T00:32:45.978Z,82.02
2023-05-02T00:35:13.062Z,82.29
2023-05-02T00:37:39.920Z,82.31
2023-05-02T00:40:08.207Z,82.50
2023-05-02T00:42:36.671Z,82.62
2023-05-02T00:45:07.176Z,82.33
2023-05-02T00:47:34.548Z,82.39
2023-05-02T00:50:02.822Z,82.41
2023-05-02T00:52:29.779Z,82.45
2023-05-02T00:54:56.783Z,82.68
2023-05-02T00:57:23.612Z,82.79
2023-05-02T00:59:50.390Z,82.95
2023-05-02T01:02:17.606Z,83.10
2023-05-02T01:04:53.863Z,83.29
2023-05-02T01:07:32.184Z,83.31
2023-05-02T01:10:18.246Z,83.23
2023-05-02T01:12:46.685Z,82.98
2023-05-02T01:15:17.231Z,83.19
2023-05-02T01:17:44.498Z,83.22
2023-05-02T01:20:15.272Z,83.21
2023-05-02T01:22:42.581Z,83.40
2023-05-02T01:25:28.310Z,83.16
2023-05-02T01:28:01.218Z,83.14
2023-05-02T01:30:28.437Z,83.07
2023-05-02T01:32:55.538Z,83.24
2023-05-02T01:35:22.663Z,83.12
2023-05-02T01:37:49.487Z,82.85
2023-05-02T01:40:17.929Z,82.85
2023-05-02T01:42:46.073Z,82.82
2023-05-02T01:45:12.917Z,82.94
2023-05-02T01:47:39.829Z,83.05
2023-05-02T01:50:11.457Z,82.99
2023-05-02T01:52:38.738Z,83.26
2023-05-02T01:55:06.568Z,83.22
2023-05-02T01:57:33.372Z,83.45
2023-05-02T02:00:00.655Z,83.36
2023-05-02T02:02:27.725Z,83.65
2023-05-02T02:04:55.083Z,83.72
2023-05-02T02:07:22.025Z,84.29
2023-05-02T02:09:48.885Z,84.03
2023-05-02T02:12:25.046Z,84.41
2023-05-02T02:14:56.637Z,84.37
2023-05-02T02:17:46.822Z,84.40
2023-05-02T02:20:13.738Z,84.61
2023-05-02T02:22:40.805Z,84.57
2023-05-02T02:25:08.342Z,84.69
2023-05-02T02:27:35.185Z,84.64
2023-05-02T02:30:02.342Z,84.55
2023-05-02T02:32:29.966Z,84.75
2023-05-02T02:34:56.872Z,84.66
2023-05-02T02:37:30.100Z,84.44
2023-05-02T02:40:13.516Z,84.53
2023-05-02T02:42:41.141Z,84.11
2023-05-02T02:45:11.264Z,84.09
2023-05-02T02:47:46.060Z,84.16
2023-05-02T02:50:39.346Z,83.55
2023-05-02T02:53:06.504Z,83.30
2023-05-02T02:55:36.926Z,83.18
2023-05-02T02:58:09.985Z,83.01
2023-05-02T03:00:36.788Z,82.62
2023-05-02T03:03:03.772Z,82.32
2023-05-02T03:05:30.972Z,82.12
2023-05-02T03:07:59.087Z,81.64
2023-05-02T03:10:25.900Z,81.23
2023-05-02T03:12:55.717Z,81.05
2023-05-02T03:15:42.206Z,80.73
2023-05-02T03:18:09.505Z,79.84
2023-05-02T03:20:36.321Z,79.48
2023-05-02T03:23:04.017Z,78.67
2023-05-02T03:25:30.786Z,77.83
2023-05-02T03:27:58.322Z,77.00
2023-05-02T03:30:25.496Z,76.59
2023-05-02T03:32:53.086Z,75.80
2023-05-02T03:35:20.022Z,74.68
2023-05-02T03:37:47.839Z,72.13
2023-05-02T03:40:15.026Z,70.70
2023-05-02T03:42:42.375Z,69.71
2023-05-02T03:45:17.778Z,69.25
2023-05-02T03:47:45.016Z,68.32
2023-05-02T03:50:12.420Z,68.33
2023-05-02T03:52:39.419Z,68.18
2023-05-02T03:55:07.996Z,67.41
2023-05-02T03:57:34.841Z,66.82
2023-05-02T04:04:14.173Z,66.20
2023-05-02T04:06:47.198Z,65.79
2023-05-02T04:09:14.868Z,65.94
2023-05-02T04:11:49.496Z,65.48
2023-05-02T04:14:16.510Z,65.07
2023-05-02T04:16:48.244Z,65.07
2023-05-02T04:19:18.482Z,65.07
2023-05-02T04:21:45.450Z,64.80
2023-05-02T04:24:13.360Z,64.76
2023-05-02T04:26:40.298Z,64.53
2023-05-02T04:29:10.096Z,64.80
2023-05-02T04:31:37.268Z,64.64
2023-05-02T04:34:04.523Z,64.58
2023-05-02T04:36:37.238Z,63.21
2023-05-02T04:39:07.668Z,61.97
2023-05-02T04:41:36.681Z,60.26
2023-05-02T04:44:06.461Z,58.15
2023-05-02T04:46:34.049Z,56.88
2023-05-02T04:49:00.961Z,56.74
2023-05-02T04:51:29.347Z,56.52
2023-05-02T04:53:56.806Z,56.80
2023-05-02T04:56:23.759Z,56.42
2023-05-02T04:58:50.709Z,57.31
2023-05-02T05:01:18.276Z,56.99
2023-05-02T05:03:46.646Z,56.78
2023-05-02T05:06:15.847Z,56.58
2023-05-02T05:08:45.777Z,56.03
2023-05-02T05:11:13.666Z,54.95
2023-05-02T05:13:42.180Z,53.50
2023-05-02T05:16:10.743Z,53.16
2023-05-02T05:18:41.063Z,51.70
2023-05-02T05:21:10.433Z,50.00
2023-05-02T05:23:37.715Z,50.22
2023-05-02T05:26:11.469Z,50.58
2023-05-02T05:28:40.092Z,49.44
2023-05-02T05:31:10.920Z,49.54
2023-05-02T05:33:38.763Z,47.82
2023-05-02T05:36:07.312Z,46.76
2023-05-02T05:38:35.494Z,46.23
2023-05-02T05:41:03.386Z,46.34
2023-05-02T05:43:30.431Z,45.03
2023-05-02T05:45:57.671Z,45.70
2023-05-02T05:48:27.706Z,45.14
2023-05-02T05:50:55.058Z,44.61
2023-05-02T05:53:22.004Z,44.64
2023-05-02T05:55:49.371Z,44.96
2023-05-02T05:58:16.572Z,45.26
2023-05-02T06:00:45.110Z,44.57
2023-05-02T06:03:12.486Z,44.52
2023-05-02T06:05:40.951Z,43.41
2023-05-02T06:08:07.981Z,43.36
2023-05-02T06:10:38.040Z,42.09
2023-05-02T06:13:06.772Z,43.37
2023-05-02T06:15:36.437Z,41.61
2023-05-02T06:18:05.074Z,42.29
2023-05-02T06:20:32.040Z,41.49
2023-05-02T06:23:20.115Z,40.80
2023-05-02T06:25:47.167Z,40.87
2023-05-02T06:28:14.137Z,41.29
2023-05-02T06:30:41.332Z,39.70
2023-05-02T06:33:08.141Z,38.27
2023-05-02T06:35:34.989Z,38.52
2023-05-02T06:38:01.844Z,38.02
2023-05-02T06:40:28.726Z,35.30
2023-05-02T06:42:55.921Z,38.07
2023-05-02T06:45:22.930Z,38.71
2023-05-02T06:47:50.054Z,36.79
2023-05-02T06:50:17.608Z,36.57
2023-05-02T06:52:44.406Z,37.39
2023-05-02T06:55:11.228Z,36.74
2023-05-02T06:57:38.139Z,37.78
2023-05-02T07:00:05.298Z,37.62
2023-05-02T07:02:32.403Z,37.27
2023-05-02T07:04:59.410Z,38.60
2023-05-02T07:07:26.355Z,38.02
2023-05-02T07:09:53.301Z,38.08
2023-05-02T07:12:21.011Z,38.67
2023-05-02T07:14:47.900Z,37.84
2023-05-02T07:17:15.927Z,37.57
2023-05-02T07:19:55.949Z,36.49
2023-05-02T07:22:22.778Z,33.10
2023-05-02T07:24:59.510Z,34.26
2023-05-02T07:27:26.726Z,34.99
2023-05-02T07:29:53.461Z,33.88
2023-05-02T07:32:21.832Z,35.47
2023-05-02T07:34:49.121Z,35.83
2023-05-02T07:37:15.970Z,33.81
2023-05-02T07:39:42.812Z,35.15
2023-05-02T07:42:10.186Z,36.07
2023-05-02T07:44:37.064Z,35.32
2023-05-02T07:47:03.881Z,35.02
2023-05-02T07:49:31.597Z,36.91
2023-05-02T07:51:58.491Z,36.93
2023-05-02T07:54:28.371Z,38.03
2023-05-02T07:57:02.493Z,38.30
2023-05-02T07:59:32.623Z,38.68
2023-05-02T08:01:59.579Z,37.75
2023-05-02T08:04:28.127Z,38.21
2023-05-02T08:06:55.525Z,38.59
2023-05-02T08:09:23.275Z,38.50
2023-05-02T08:11:50.139Z,38.60
2023-05-02T08:14:16.930Z,36.72
2023-05-02T08:16:46.053Z,37.33
2023-05-02T08:19:13.410Z,38.00
2023-05-02T08:21:40.419Z,36.82
2023-05-02T08:24:07.285Z,36.43
2023-05-02T08:26:34.225Z,37.19
2023-05-02T08:31:42.345Z,37.08
2023-05-02T08:34:09.353Z,36.91
2023-05-02T08:36:37.489Z,36.53
2023-05-02T08:39:04.449Z,36.52
2023-05-02T08:41:31.692Z,36.64
2023-05-02T08:43:58.555Z,36.62
2023-05-02T08:46:26.851Z,36.93
2023-05-02T08:48:59.225Z,36.02
2023-05-02T08:51:26.300Z,36.29
2023-05-02T08:53:53.068Z,34.28
2023-05-02T08:56:19.860Z,35.99
2023-05-02T08:58:46.910Z,35.55
2023-05-02T09:01:15.604Z,36.22
2023-05-02T09:03:46.481Z,35.87
2023-05-02T09:06:14.368Z,35.57
2023-05-02T09:08:41.691Z,35.43
2023-05-02T09:11:12.112Z,36.23
2023-05-02T09:13:46.400Z,34.66
2023-05-02T09:16:23.055Z,33.92
2023-05-02T09:18:51.182Z,33.86
2023-05-02T09:21:21.240Z,34.59
2023-05-02T09:23:49.471Z,34.49
2023-05-02T09:26:35.044Z,34.71
2023-05-02T09:29:02.927Z,34.17
2023-05-02T09:31:54.321Z,33.40
2023-05-02T09:34:17.614Z,33.39
2023-05-02T09:36:45.705Z,33.25
2023-05-02T09:39:13.949Z,33.44
2023-05-02T09:41:42.047Z,32.91
2023-05-02T09:44:12.722Z,32.85
2023-05-02T09:46:40.588Z,32.98
2023-05-02T09:49:08.202Z,33.69
2023-05-02T09:51:35.034Z,33.58
2023-05-02T09:54:01.938Z,33.33
2023-05-02T09:56:29.104Z,33.24
2023-05-02T09:59:15.522Z,32.98
2023-05-02T10:01:42.518Z,33.08
2023-05-02T10:04:16.542Z,33.98
2023-05-02T10:06:46.996Z,34.02
2023-05-02T10:09:18.183Z,34.03
2023-05-02T10:11:46.680Z,33.49
2023-05-02T10:14:13.527Z,33.23
2023-05-02T10:16:45.288Z,33.36
2023-05-02T10:19:12.350Z,32.20
2023-05-02T10:21:39.186Z,33.43
2023-05-02T10:24:06.298Z,34.14
2023-05-02T10:26:34.429Z,34.91
2023-05-02T10:29:01.859Z,33.86
2023-05-02T10:31:30.776Z,33.89
2023-05-02T10:33:57.745Z,32.74
2023-05-02T10:36:24.629Z,33.85
2023-05-02T10:38:51.526Z,34.03
2023-05-02T10:41:26.551Z,34.23
2023-05-02T10:43:53.416Z,34.41
2023-05-02T10:46:29.909Z,34.82
2023-05-02T10:49:09.105Z,34.37
2023-05-02T10:51:36.569Z,33.32
2023-05-02T10:54:21.952Z,33.45
2023-05-02T10:57:04.529Z,33.54
2023-05-02T10:59:31.407Z,34.09
2023-05-02T11:01:58.644Z,34.04
2023-05-02T11:04:25.602Z,33.77
2023-05-02T11:07:02.479Z,33.10
2023-05-02T11:09:29.691Z,34.27
2023-05-02T11:11:57.398Z,34.88
2023-05-02T11:14:33.975Z,34.70
2023-05-02T11:17:07.068Z,34.88
2023-05-02T11:19:46.356Z,35.02
2023-05-02T11:22:31.585Z,35.08
2023-05-02T11:24:58.514Z,34.90
2023-05-02T11:27:32.314Z,34.30
2023-05-02T11:30:02.557Z,34.92
2023-05-02T11:32:48.891Z,35.06
2023-05-02T11:35:22.994Z,35.46
2023-05-02T11:37:56.652Z,34.76
2023-05-02T11:40:23.911Z,34.73
2023-05-02T11:42:50.795Z,34.30
2023-05-02T11:45:18.742Z,34.14
2023-05-02T11:47:48.646Z,34.77
2023-05-02T11:50:15.715Z,34.40
2023-05-02T11:52:43.253Z,34.63
2023-05-02T11:55:15.075Z,34.63
2023-05-02T11:57:43.133Z,34.30
2023-05-02T12:00:11.492Z,34.36
2023-05-02T12:02:45.553Z,34.62
2023-05-02T12:05:13.662Z,35.11
2023-05-02T12:07:40.762Z,34.81
2023-05-02T12:10:08.108Z,34.50
2023-05-02T12:12:35.121Z,34.67
2023-05-02T12:15:08.734Z,34.37
2023-05-02T12:17:42.601Z,34.81
2023-05-02T12:20:09.933Z,34.79
2023-05-02T12:22:36.973Z,35.12
2023-05-02T12:25:05.069Z,34.84
2023-05-02T12:27:35.482Z,34.90
2023-05-02T12:30:02.806Z,34.87
2023-05-02T12:32:31.162Z,35.05
2023-05-02T12:34:58.694Z,35.60
2023-05-02T12:37:26.174Z,35.74
2023-05-02T12:39:53.637Z,35.26
2023-05-02T12:42:20.969Z,35.38
2023-05-02T12:44:49.279Z,36.03
2023-05-02T12:47:16.562Z,35.82
2023-05-02T12:49:50.361Z,35.97
2023-05-02T12:52:21.160Z,36.12
2023-05-02T12:54:48.622Z,36.20
2023-05-02T12:57:25.185Z,36.46
2023-05-02T12:59:53.172Z,36.99
2023-05-02T13:02:21.080Z,36.72
2023-05-02T13:04:47.913Z,36.80
2023-05-02T13:07:14.732Z,36.82
2023-05-02T13:09:41.703Z,36.31
2023-05-02T13:12:08.557Z,35.86
2023-05-02T13:14:35.404Z,35.74
2023-05-02T13:17:02.683Z,36.05
2023-05-02T13:19:31.540Z,35.86
2023-05-02T13:21:58.901Z,35.86
2023-05-02T13:24:25.935Z,36.21
2023-05-02T13:26:52.786Z,36.40
2023-05-02T13:29:19.629Z,36.73
2023-05-02T13:31:46.489Z,36.77
2023-05-02T13:34:13.327Z,36.76
2023-05-02T13:36:46.410Z,36.54
2023-05-02T13:39:14.130Z,36.37
2023-05-02T13:41:41.680Z,36.49
2023-05-02T13:44:09.657Z,37.60
2023-05-02T13:46:38.019Z,37.38
2023-05-02T13:49:05.425Z,37.55
2023-05-02T13:51:32.643Z,36.73
2023-05-02T13:53:59.784Z,36.86
2023-05-02T13:56:27.042Z,36.74
2023-05-02T13:58:54.101Z,36.97
2023-05-02T14:01:21.108Z,36.71
2023-05-02T14:03:48.216Z,36.73
2023-05-02T14:06:15.207Z,36.70
2023-05-02T14:08:42.180Z,36.41
2023-05-02T14:11:08.985Z,36.48
2023-05-02T14:13:35.796Z,36.67
2023-05-02T14:16:02.765Z,36.46
2023-05-02T14:18:29.604Z,36.61
2023-05-02T14:21:00.190Z,36.58
2023-05-02T14:23:30.129Z,36.39
2023-05-02T14:25:57.132Z,36.39
2023-05-02T14:28:23.869Z,37.18
2023-05-02T14:30:51.098Z,37.26
2023-05-02T14:33:17.949Z,36.20
2023-05-02T14:35:44.739Z,36.43
2023-05-02T14:38:11.762Z,35.99
2023-05-02T14:40:38.620Z,36.18
2023-05-02T14:43:07.030Z,36.65
2023-05-02T14:45:34.028Z,36.49
2023-05-02T14:48:01.135Z,36.49
2023-05-02T14:50:28.043Z,36.44
2023-05-02T14:52:54.864Z,36.47
2023-05-02T14:55:21.671Z,36.40
2023-05-02T14:57:48.442Z,36.44
2023-05-02T15:00:16.467Z,36.53
2023-05-02T15:02:43.339Z,36.85
2023-05-02T15:05:12.647Z,36.72
2023-05-02T15:07:39.864Z,37.12
2023-05-02T15:10:07.129Z,36.97
2023-05-02T15:12:34.108Z,36.86
2023-05-02T15:15:01.045Z,37.14
2023-05-02T15:17:27.856Z,37.15
2023-05-02T15:19:57.017Z,37.11
2023-05-02T15:22:26.266Z,36.97
2023-05-02T15:24:53.141Z,37.39
2023-05-02T15:27:19.980Z,37.68
2023-05-02T15:29:46.824Z,37.92
2023-05-02T15:32:13.662Z,37.86
2023-05-02T15:34:40.617Z,37.53
2023-05-02T15:37:08.282Z,37.55
2023-05-02T15:39:35.125Z,37.54
2023-05-02T15:42:05.153Z,37.75
2023-05-02T15:44:38.240Z,38.01
2023-05-02T15:47:05.076Z,38.01
2023-05-02T15:49:33.523Z,38.10
2023-05-02T15:52:01.758Z,38.41
2023-05-02T15:54:28.713Z,37.92
2023-05-02T15:56:55.588Z,37.91
2023-05-02T15:59:22.398Z,37.97
2023-05-02T16:01:49.515Z,38.08
2023-05-02T16:04:16.542Z,38.32
2023-05-02T16:06:43.474Z,38.47
2023-05-02T16:09:10.866Z,38.20
2023-05-02T16:11:37.669Z,37.61
2023-05-02T16:14:04.512Z,37.87
2023-05-02T16:16:31.365Z,38.36
2023-05-02T16:18:58.484Z,38.28
2023-05-02T16:21:25.979Z,38.33
2023-05-02T16:23:53.060Z,38.39
2023-05-02T16:26:21.022Z,38.65
2023-05-02T16:28:47.989Z,38.89
2023-05-02T16:31:15.331Z,38.95
2023-05-02T16:33:43.082Z,38.94
2023-05-02T16:36:10.278Z,39.11
2023-05-02T16:38:37.074Z,39.25
2023-05-02T16:41:05.125Z,39.40
2023-05-02T16:43:32.120Z,39.93
2023-05-02T16:46:00.577Z,40.01
2023-05-02T16:48:27.402Z,39.91
2023-05-02T16:50:54.294Z,40.23
2023-05-02T16:53:21.119Z,40.58
2023-05-02T16:55:48.007Z,40.28
2023-05-02T16:58:14.830Z,40.17
2023-05-02T17:00:41.724Z,40.35
2023-05-02T17:03:08.773Z,40.86
2023-05-02T17:05:35.822Z,40.61
2023-05-02T17:08:02.751Z,40.57
2023-05-02T17:10:29.594Z,40.57
2023-05-02T17:12:58.589Z,40.81
2023-05-02T17:15:25.747Z,41.33
2023-05-02T17:17:52.677Z,41.75
2023-05-02T17:20:20.519Z,41.77
2023-05-02T17:22:47.582Z,42.44
2023-05-02T17:25:14.573Z,42.21
2023-05-02T17:27:42.031Z,43.09
2023-05-02T17:30:09.595Z,44.09
2023-05-02T17:32:37.900Z,45.22
2023-05-02T17:35:05.198Z,45.47
2023-05-02T17:37:33.006Z,45.82
2023-05-02T17:40:02.396Z,45.72
2023-05-02T17:42:29.436Z,45.93
2023-05-02T17:44:56.416Z,46.04
2023-05-02T17:47:23.270Z,45.64
2023-05-02T17:49:51.386Z,45.33
2023-05-02T17:52:18.297Z,44.73
2023-05-02T17:54:45.858Z,45.32
2023-05-02T17:57:14.670Z,45.10
2023-05-02T17:59:41.811Z,44.94
2023-05-02T18:02:10.263Z,44.70
2023-05-02T18:04:37.558Z,45.00
2023-05-02T18:07:05.926Z,45.56
2023-05-02T18:09:33.188Z,46.00
2023-05-02T18:12:00.766Z,45.62
2023-05-02T18:14:28.251Z,45.87
2023-05-02T18:16:55.001Z,46.26
2023-05-02T18:19:23.160Z,46.80
2023-05-02T18:21:49.937Z,46.88
2023-05-02T18:24:16.915Z,46.80
2023-05-02T18:26:44.112Z,46.99
2023-05-02T18:29:10.948Z,47.15
2023-05-02T18:31:40.454Z,47.21
2023-05-02T18:34:07.720Z,47.16
2023-05-02T18:36:34.620Z,46.95
2023-05-02T18:39:01.510Z,46.98
2023-05-02T18:41:28.358Z,46.31
2023-05-02T18:43:55.148Z,46.59
2023-05-02T18:46:22.002Z,46.13
2023-05-02T18:48:49.024Z,46.18
2023-05-02T18:51:16.289Z,47.13
2023-05-02T18:53:43.092Z,46.71
2023-05-02T18:56:14.584Z,46.79
2023-05-02T18:58:42.230Z,47.34
2023-05-02T19:01:15.570Z,47.70
2023-05-02T19:03:46.257Z,47.28
2023-05-02T19:06:13.812Z,47.89
2023-05-02T19:08:40.750Z,47.60
2023-05-02T19:11:07.600Z,48.00
2023-05-02T19:13:34.585Z,48.97
2023-05-02T19:16:01.436Z,49.15
2023-05-02T19:18:28.454Z,48.66
2023-05-02T19:20:55.534Z,49.01
2023-05-02T19:23:22.374Z,49.54
2023-05-02T19:25:49.645Z,48.94
2023-05-02T19:28:17.329Z,49.42
2023-05-02T19:30:44.181Z,49.95
2023-05-02T19:33:11.010Z,49.38
2023-05-02T19:35:37.905Z,48.32
2023-05-02T19:38:04.822Z,48.47
2023-05-02T19:40:31.666Z,50.61
2023-05-02T19:42:58.493Z,48.84
2023-05-02T19:45:25.264Z,47.63
2023-05-02T19:47:52.769Z,48.86
2023-05-02T19:50:19.744Z,51.38
2023-05-02T19:52:46.536Z,51.11
2023-05-02T19:55:13.713Z,49.62
2023-05-02T19:57:41.523Z,49.84
2023-05-02T20:00:08.660Z,49.43
2023-05-02T20:02:39.413Z,50.38
2023-05-02T20:05:06.654Z,50.96
2023-05-02T20:07:33.435Z,51.32
2023-05-02T20:10:00.545Z,50.99
2023-05-02T20:12:27.629Z,51.08
2023-05-02T20:14:55.016Z,50.84
2023-05-02T20:17:21.848Z,51.38
2023-05-02T20:19:48.610Z,53.47
2023-05-02T20:22:15.507Z,54.42
2023-05-02T20:24:42.304Z,54.10
2023-05-02T20:27:10.008Z,51.67
2023-05-02T20:29:36.817Z,52.37
2023-05-02T20:32:03.770Z,54.45
2023-05-02T20:34:30.745Z,54.11
2023-05-02T20:36:58.679Z,54.38
2023-05-02T20:39:26.028Z,54.25
2023-05-02T20:41:52.976Z,53.91
2023-05-02T20:44:22.687Z,54.03
2023-05-02T20:46:51.612Z,54.02
2023-05-02T20:49:18.527Z,53.41
2023-05-02T20:51:45.588Z,53.23
2023-05-02T20:54:12.358Z,53.49
2023-05-02T20:56:39.493Z,54.73
2023-05-02T20:59:06.367Z,54.93
2023-05-02T21:01:33.665Z,55.87
2023-05-02T21:04:01.060Z,54.27
2023-05-02T21:06:28.156Z,52.53
2023-05-02T21:08:56.792Z,52.82
2023-05-02T21:11:23.856Z,53.19
2023-05-02T21:13:50.903Z,53.51
2023-05-02T21:16:18.251Z,55.00
2023-05-02T21:18:45.861Z,55.32
2023-05-02T21:21:12.970Z,56.39
2023-05-02T21:23:39.732Z,55.68
2023-05-02T21:26:06.534Z,54.23
2023-05-02T21:28:33.393Z,53.68
2023-05-02T21:31:01.417Z,52.96
2023-05-02T21:33:28.229Z,53.26
2023-05-02T21:35:58.279Z,55.53
2023-05-02T21:38:28.188Z,56.16
2023-05-02T21:40:55.044Z,55.92
2023-05-02T21:43:21.890Z,54.40
2023-05-02T21:45:49.177Z,54.86
2023-05-02T21:48:16.297Z,56.25
2023-05-02T21:50:43.257Z,57.02
2023-05-02T21:53:10.202Z,57.42
2023-05-02T21:55:37.871Z,56.79
2023-05-02T21:58:04.716Z,57.95
2023-05-02T22:00:32.630Z,56.24
2023-05-02T22:03:01.762Z,54.94
2023-05-02T22:05:28.739Z,56.89
2023-05-02T22:07:56.315Z,58.43
2023-05-02T22:10:23.151Z,59.29
2023-05-02T22:12:50.001Z,59.72
2023-05-02T22:15:16.803Z,59.06
2023-05-02T22:17:46.207Z,58.81
2023-05-02T22:20:13.276Z,58.43
2023-05-02T22:22:40.606Z,57.95
2023-05-02T22:25:07.975Z,58.23
2023-05-02T22:27:34.869Z,59.32
2023-05-02T22:30:02.536Z,59.33
2023-05-02T22:32:29.624Z,59.55
2023-05-02T22:34:56.413Z,59.67
2023-05-02T22:37:23.335Z,59.81
2023-05-02T22:39:50.242Z,59.93
2023-05-02T22:42:17.196Z,59.95
2023-05-02T22:44:53.582Z,59.78
2023-05-02T22:47:25.385Z,59.46
2023-05-02T22:49:52.829Z,58.56
2023-05-02T22:52:20.928Z,59.07
2023-05-02T22:54:47.813Z,59.31
2023-05-02T22:57:14.616Z,59.71
2023-05-02T22:59:41.424Z,59.08
2023-05-02T23:02:10.427Z,59.26
2023-05-02T23:04:37.397Z,59.49
2023-05-02T23:07:04.299Z,59.59
2023-05-02T23:09:31.250Z,59.68
2023-05-02T23:11:58.105Z,60.48
2023-05-02T23:14:24.946Z,60.58
2023-05-02T23:16:53.829Z,60.66
2023-05-02T23:19:20.790Z,60.98
2023-05-02T23:21:47.599Z,61.80
2023-05-02T23:24:14.626Z,62.40
2023-05-02T23:26:41.439Z,62.68
2023-05-02T23:29:08.475Z,63.44
2023-05-02T23:31:35.492Z,64.09
2023-05-02T23:34:02.395Z,64.70
2023-05-02T23:36:29.246Z,64.78
2023-05-02T23:38:56.084Z,64.59
2023-05-02T23:41:23.138Z,64.58
2023-05-02T23:43:49.929Z,65.12
2023-05-02T23:46:16.803Z,65.07
2023-05-02T23:48:43.684Z,64.58
2023-05-02T23:51:10.474Z,63.92
2023-05-02T23:53:37.381Z,64.09
2023-05-02T23:56:04.431Z,64.24
2023-05-02T23:58:31.534Z,64.11
